Messwerte Suhar

Temperatur

Temperatur
°C
1624446000 15.00 15.00 39
1624449600 16.00 16.00 40
1624453200 17.00 17.00 39
1624456800 18.00 18.00 37
1624460400 19.00 19.00 36
1624464000 20.00 20.00 35
1624467600 21.00 21.00 35
1624471200 22.00 22.00 35
1624474800 23.00 23.00 33
1624478400 0.00 0.00
1624482000 1.00 1.00 33
1624485600 2.00 2.00 33
1624489200 3.00 3.00 33
1624492800 4.00 4.00 32
1624496400 5.00 5.00 31
1624500000 6.00 6.00 31
1624503600 7.00 7.00
1624507200 8.00 8.00 33
1624510800 9.00 9.00 35
1624514400 10.00 10.00 37
1624518000 11.00 11.00 40
1624521600 12.00 12.00 41
1624525200 13.00 13.00 42
1624528800 14.00 14.00 43

Aktuellste Messwerte

Temperatur
43 °C
Feuchtigkeit
20 %
Wind
20 km/hWindrichtung: Ost
Luftdruck
999 hPa
Messzeit: 24. Juni 2021, 14.00Datenquelle: METAR

Weitere Messstationen in der Nähe

Messstation Temperatur Entfernung
Fujairah 39 °C 76 km
Al Ain 44 °C 107 km
Ras Al Khaimah 42 °C 146 km
Schardscha 41 °C 147 km
Dubai 40 °C 157 km
Jask 35 °C 173 km
Maskat 36 °C 194 km

Wind

Windrichtung Böen Mittelwind
° km/h km/h
1624446000 15.00 14.00 - 15.00 60° 15
1624449600 16.00 15.00 - 16.00 90° 20
1624453200 17.00 16.00 - 17.00 90° 20
1624456800 18.00 17.00 - 18.00 90° 10
1624460400 19.00 18.00 - 19.00 120° 15
1624464000 20.00 19.00 - 20.00 130° 15
1624467600 21.00 20.00 - 21.00 150° 10
1624471200 22.00 21.00 - 22.00 100° 10
1624474800 23.00 22.00 - 23.00 80° 15
1624478400 0.00 23.00 - 0.00
1624482000 1.00 0.00 - 1.00 250° 5
1624485600 2.00 1.00 - 2.00 250° 10
1624489200 3.00 2.00 - 3.00 240° 5
1624492800 4.00 3.00 - 4.00 110° 10
1624496400 5.00 4.00 - 5.00 120° 5
1624500000 6.00 5.00 - 6.00 5
1624503600 7.00 6.00 - 7.00
1624507200 8.00 7.00 - 8.00 5
1624510800 9.00 8.00 - 9.00 5
1624514400 10.00 9.00 - 10.00 5
1624518000 11.00 10.00 - 11.00 70° 5
1624521600 12.00 11.00 - 12.00 70° 10
1624525200 13.00 12.00 - 13.00 70° 20
1624528800 14.00 13.00 - 14.00 70° 20

Ihre Wetterstation

Fehlt Ihre Wetterstation auf unserem Portal?

Schreiben Sie an network@meteonews.ch

Klima

Wann ist es am wärmsten? Wann regnet es am wenigsten? Unsere Klimadaten geben Auskunft.